Aérodrome :
LOGIN :

S'inscrire | Disclaimer

   EN    FR    IT 

 










Légende :    VFR   VFR Marginal   IFR   IFR Intensif   IFR Très Intensif
Visi : 
Plafond : 
>= 8 km
>= 3000ft
5 à 8 km
1000 à 3000 ft
1500m à 5 km
500 à 1000 ft
800 à 1500m
200 à 500 ft
< 800m
< 200 ft
Symboles :   Orages  Brouillard  Fortes neiges  Fortes précipitations  Vent > 20 kt
SIGMETs :   Divers  Orages  Givrage  Turbulence  Onde Orograph.  Cendres Volcan.






- Altitude de l'aérodrome : 856 ft
- Code IATA : VGO


LEVX - Vigo Peinador

DERNIER METAR :
  • 261630Z 24007KT 210V280 9999 SCT022 BKN030 BKN045 11/07 Q1025 NOSIG

METARs EXPIRÉS :
  • 261600Z 26007KT 200V310 9999 SCT023 SCT029 12/06 Q1025 NOSIG
  • 261530Z 25008KT 190V330 9999 SCT024 BKN037 12/06 Q1025 NOSIG
  • 261500Z 26007KT 220V310 9999 SCT023 BKN032 12/06 Q1025 NOSIG
  • 261430Z 26006KT 200V300 9999 FEW025 SCT043 BKN049 12/07 Q1025 NOSIG
  • 261400Z 26007KT 210V300 9999 SCT025 BKN040 12/06 Q1025 NOSIG

TAF TAF LEVX
Valide du 26 à 12h jusqu'au 27 à 12h UTC


261100Z 2612/2712 24009KT 8000 SCT015 BKN040 TX12/2613Z TN10/2706Z
PROB40
TEMPO 2612/2709 3000 -RADZ BR BKN010
TEMPO 2621/2709 0800 RADZ BCFG BKN005
TEMPO 2621/2709 0350 DZ FG VV001



MET'MAP, la Météo Aéronautique d'un coup d'oeil ! - Copyright ORBIFLY Décembre 2007 - Disclaimer

ORBIFLY MET'MAP TEAM :

Programmation & Développement : Alexandra Zaïnal
Sur une idée originale de : Baudouin d'Aumeries
Assistance à la programmation : Marc-Olivier Méhu
Soutien technique & logistique : Manuel Goepfert

Contact : metmap@orbifly.com




SOURCES & CREDITS :

   NOAA